createdAt,value
2023-01-11T00:00:58.439Z,510.00
2023-01-11T00:01:58.466Z,511.00
2023-01-11T00:02:58.455Z,506.00
2023-01-11T00:03:58.482Z,505.00
2023-01-11T00:04:58.534Z,503.00
2023-01-11T00:05:58.564Z,504.00
2023-01-11T00:06:58.606Z,502.00
2023-01-11T00:07:58.548Z,500.00
2023-01-11T00:08:58.583Z,501.00
2023-01-11T00:09:58.595Z,503.00
2023-01-11T00:10:58.648Z,503.00
2023-01-11T00:11:58.648Z,507.00
2023-01-11T00:12:58.656Z,508.00
2023-01-11T00:13:58.678Z,509.00
2023-01-11T00:14:58.702Z,509.00
2023-01-11T00:15:58.735Z,509.00
2023-01-11T00:16:58.776Z,510.00
2023-01-11T00:17:58.761Z,506.00
2023-01-11T00:18:58.766Z,507.00
2023-01-11T00:19:58.791Z,506.00
2023-01-11T00:20:58.812Z,506.00
2023-01-11T00:21:58.842Z,504.00
2023-01-11T00:22:58.845Z,504.00
2023-01-11T00:23:58.855Z,504.00
2023-01-11T00:24:58.862Z,507.00
2023-01-11T00:25:58.895Z,505.00
2023-01-11T00:26:58.901Z,502.00
2023-01-11T00:27:58.906Z,504.00
2023-01-11T00:28:58.930Z,500.00
2023-01-11T00:29:58.943Z,497.00
2023-01-11T00:30:58.973Z,497.00
2023-01-11T00:31:58.969Z,495.00
2023-01-11T00:32:59.002Z,495.00
2023-01-11T00:33:58.985Z,495.00
2023-01-11T00:34:58.998Z,495.00
2023-01-11T00:35:59.014Z,494.00
2023-01-11T00:36:59.062Z,494.00
2023-01-11T00:37:59.073Z,496.00
2023-01-11T00:38:59.085Z,496.00
2023-01-11T00:39:59.087Z,493.00
2023-01-11T00:40:59.096Z,493.00
2023-01-11T00:41:59.164Z,492.00
2023-01-11T00:42:59.127Z,494.00
2023-01-11T00:43:59.141Z,495.00
2023-01-11T00:44:59.172Z,496.00
2023-01-11T00:45:59.203Z,496.00
2023-01-11T00:46:59.206Z,495.00
2023-01-11T00:47:59.219Z,496.00
2023-01-11T00:48:59.224Z,497.00
2023-01-11T00:49:59.254Z,496.00
2023-01-11T00:50:59.274Z,497.00
2023-01-11T00:51:59.299Z,495.00
2023-01-11T00:52:59.321Z,495.00
2023-01-11T00:53:59.306Z,496.00
2023-01-11T00:54:59.338Z,497.00
2023-01-11T00:55:59.323Z,497.00
2023-01-11T00:56:59.371Z,496.00
2023-01-11T00:57:59.358Z,498.00
2023-01-11T00:58:59.385Z,497.00
2023-01-11T00:59:59.379Z,496.00
2023-01-11T01:00:59.455Z,494.00
2023-01-11T01:01:59.433Z,495.00
2023-01-11T01:02:59.434Z,492.00
2023-01-11T01:03:59.441Z,490.00
2023-01-11T01:04:59.444Z,489.00
2023-01-11T01:05:59.451Z,490.00
2023-01-11T01:06:59.475Z,491.00
2023-01-11T01:07:59.477Z,489.00
2023-01-11T01:08:59.486Z,490.00
2023-01-11T01:09:59.485Z,490.00
2023-01-11T01:10:59.521Z,487.00
2023-01-11T01:11:59.535Z,488.00
2023-01-11T01:12:59.554Z,489.00
2023-01-11T01:13:59.556Z,488.00
2023-01-11T01:14:59.563Z,488.00
2023-01-11T01:15:59.628Z,488.00
2023-01-11T01:16:59.604Z,487.00
2023-01-11T01:17:59.629Z,489.00
2023-01-11T01:18:59.635Z,489.00
2023-01-11T03:05:00.932Z,473.00
2023-01-11T03:06:00.948Z,471.00
2023-01-11T03:07:01.001Z,471.00
2023-01-11T03:08:00.955Z,470.00
2023-01-11T03:09:00.973Z,471.00
2023-01-11T03:10:00.993Z,470.00
2023-01-11T03:11:01.006Z,467.00
2023-01-11T03:12:01.006Z,467.00
2023-01-11T03:13:01.028Z,467.00
2023-01-11T03:14:01.040Z,469.00
2023-01-11T03:15:01.044Z,471.00
2023-01-11T03:16:01.103Z,473.00
2023-01-11T03:17:01.086Z,474.00
2023-01-11T03:18:01.136Z,474.00
2023-01-11T03:19:01.100Z,475.00
2023-01-11T03:20:01.125Z,476.00
2023-01-11T03:21:01.119Z,475.00
2023-01-11T03:22:01.142Z,474.00
2023-01-11T03:23:01.152Z,476.00
2023-01-11T03:24:01.175Z,476.00
2023-01-11T03:25:01.183Z,477.00
2023-01-11T03:26:01.199Z,480.00
2023-01-11T03:27:01.466Z,478.00
2023-01-11T03:28:01.265Z,477.00
2023-01-11T03:29:01.238Z,475.00
2023-01-11T03:30:01.267Z,471.00
2023-01-11T03:31:01.308Z,471.00
2023-01-11T03:32:01.279Z,472.00
2023-01-11T03:33:01.435Z,472.00
2023-01-11T03:34:01.307Z,473.00
2023-01-11T03:35:01.331Z,472.00
2023-01-11T03:36:01.339Z,474.00
2023-01-11T03:37:01.333Z,472.00
2023-01-11T03:38:01.369Z,472.00
2023-01-11T03:39:01.385Z,474.00
2023-01-11T03:40:01.411Z,474.00
2023-01-11T03:41:01.408Z,474.00
2023-01-11T03:42:01.434Z,473.00
2023-01-11T03:43:01.434Z,473.00
2023-01-11T03:44:01.465Z,471.00
2023-01-11T03:45:01.509Z,471.00
2023-01-11T03:46:01.477Z,472.00
2023-01-11T03:47:01.570Z,471.00
2023-01-11T03:48:01.510Z,471.00
2023-01-11T03:49:01.540Z,472.00
2023-01-11T03:50:01.534Z,472.00
2023-01-11T05:03:02.641Z,461.00
2023-01-11T05:04:02.709Z,462.00
2023-01-11T05:05:02.670Z,461.00
2023-01-11T05:06:02.675Z,459.00
2023-01-11T05:07:02.753Z,458.00
2023-01-11T05:08:02.733Z,459.00
2023-01-11T05:09:02.721Z,459.00
2023-01-11T05:10:02.761Z,459.00
2023-01-11T05:11:02.751Z,457.00
2023-01-11T05:12:02.782Z,458.00
2023-01-11T05:13:02.766Z,458.00
2023-01-11T05:14:02.783Z,462.00
2023-01-11T05:15:02.790Z,462.00
2023-01-11T05:16:02.802Z,462.00
2023-01-11T05:17:02.839Z,461.00
2023-01-11T05:18:02.824Z,460.00
2023-01-11T05:19:02.833Z,458.00
2023-01-11T05:20:02.842Z,458.00
2023-01-11T05:21:02.843Z,457.00
2023-01-11T05:22:02.881Z,455.00
2023-01-11T05:23:02.912Z,453.00
2023-01-11T05:24:02.894Z,452.00
2023-01-11T05:25:02.913Z,452.00
2023-01-11T05:26:02.910Z,451.00
2023-01-11T05:27:02.965Z,451.00
2023-01-11T05:30:03.328Z,457.00
2023-01-11T05:31:02.969Z,456.00
2023-01-11T05:32:03.047Z,457.00
2023-01-11T05:33:03.011Z,458.00
2023-01-11T05:34:03.017Z,454.00
2023-01-11T06:49:05.656Z,700.00
2023-01-11T07:00:05.725Z,962.00
2023-01-11T07:01:05.276Z,957.00
2023-01-11T07:02:05.421Z,967.00
2023-01-11T07:03:08.815Z,973.00
2023-01-11T07:04:07.846Z,979.00
2023-01-11T07:05:08.138Z,985.00
2023-01-11T07:06:10.306Z,991.00
2023-01-11T07:07:08.151Z,996.00
2023-01-11T07:08:10.032Z,1004.00
2023-01-11T07:09:14.605Z,1016.00
2023-01-11T07:10:12.978Z,1022.00
2023-01-11T07:11:08.457Z,1027.00
2023-01-11T07:12:13.039Z,1033.00
2023-01-11T07:13:14.152Z,1044.00
2023-01-11T07:14:10.022Z,1056.00
2023-01-11T07:15:13.827Z,1064.00
2023-01-11T07:16:11.862Z,1070.00
2023-01-11T07:17:11.969Z,1081.00
2023-01-11T07:18:11.009Z,1092.00
2023-01-11T07:19:12.602Z,1102.00
2023-01-11T07:20:12.039Z,1129.00
2023-01-11T07:21:12.023Z,1134.00
2023-01-11T07:22:07.253Z,1140.00
2023-01-11T07:23:09.359Z,1150.00
2023-01-11T07:24:09.691Z,1158.00
2023-01-11T07:25:07.805Z,1162.00
2023-01-11T07:26:09.182Z,1162.00
2023-01-11T07:27:07.859Z,1167.00
2023-01-11T07:28:06.402Z,1195.00
2023-01-11T07:29:06.538Z,1244.00
2023-01-11T07:30:09.029Z,1276.00
2023-01-11T07:31:06.316Z,1274.00
2023-01-11T07:32:06.177Z,1282.00
2023-01-11T07:33:06.212Z,1275.00
2023-01-11T07:34:06.243Z,1268.00
2023-01-11T07:35:06.290Z,1266.00
2023-01-11T07:36:06.254Z,1265.00
2023-01-11T07:37:06.289Z,1262.00
2023-01-11T07:38:06.264Z,1273.00
2023-01-11T07:39:06.268Z,1394.00
2023-01-11T07:40:06.288Z,1480.00
2023-01-11T07:41:06.283Z,1495.00
2023-01-11T07:42:07.708Z,1490.00
2023-01-11T07:43:06.716Z,1489.00
2023-01-11T07:44:07.718Z,1393.00
2023-01-11T07:45:06.357Z,1401.00
2023-01-11T07:46:06.433Z,1247.00
2023-01-11T07:47:06.444Z,1169.00
2023-01-11T07:48:06.374Z,1207.00
2023-01-11T07:49:07.207Z,790.00
2023-01-11T07:50:06.507Z,703.00
2023-01-11T07:51:06.459Z,682.00
2023-01-11T07:52:06.504Z,793.00
2023-01-11T07:53:06.618Z,831.00
2023-01-11T07:54:06.591Z,842.00
2023-01-11T07:55:08.944Z,830.00
2023-01-11T07:56:08.856Z,815.00
2023-01-11T07:57:08.851Z,816.00
2023-01-11T07:58:09.313Z,824.00
2023-01-11T07:59:07.676Z,828.00
2023-01-11T08:00:06.744Z,827.00
2023-01-11T08:01:06.773Z,846.00
2023-01-11T08:02:06.803Z,859.00
2023-01-11T08:03:06.988Z,819.00
2023-01-11T08:04:07.055Z,724.00
2023-01-11T08:05:06.883Z,736.00
2023-01-11T08:06:06.885Z,854.00
2023-01-11T08:07:06.909Z,868.00
2023-01-11T08:08:06.907Z,881.00
2023-01-11T08:09:06.919Z,900.00
2023-01-11T08:10:06.960Z,917.00
2023-01-11T08:11:10.204Z,928.00
2023-01-11T08:12:09.921Z,940.00
2023-01-11T08:13:07.276Z,953.00
2023-01-11T08:14:09.546Z,962.00
2023-01-11T08:15:13.192Z,973.00
2023-01-11T08:16:12.810Z,1020.00
2023-01-11T08:17:15.151Z,1028.00
2023-01-11T08:18:14.331Z,1033.00
2023-01-11T08:19:15.922Z,1045.00
2023-01-11T08:20:10.281Z,1058.00
2023-01-11T08:21:08.322Z,1069.00
2023-01-11T08:22:08.100Z,1075.00
2023-01-11T08:23:07.115Z,1083.00
2023-01-11T08:24:07.131Z,1095.00
2023-01-11T08:25:07.121Z,1158.00
2023-01-11T08:26:07.192Z,1161.00
2023-01-11T08:27:07.279Z,1174.00
2023-01-11T08:28:07.175Z,1197.00
2023-01-11T08:29:07.168Z,1189.00
2023-01-11T08:30:07.174Z,1246.00
2023-01-11T08:31:07.236Z,1214.00
2023-01-11T08:32:07.215Z,1206.00
2023-01-11T08:33:07.202Z,1201.00
2023-01-11T08:34:07.214Z,1203.00
2023-01-11T08:35:07.235Z,1202.00
2023-01-11T08:36:07.523Z,1206.00
2023-01-11T08:37:07.240Z,1241.00
2023-01-11T08:38:07.240Z,1244.00
2023-01-11T08:39:07.265Z,1320.00
2023-01-11T08:40:07.280Z,1333.00
2023-01-11T08:41:07.382Z,1329.00
2023-01-11T08:42:07.310Z,1330.00
2023-01-11T08:43:07.285Z,1333.00
2023-01-11T08:44:07.410Z,1332.00
2023-01-11T08:45:07.323Z,1321.00
2023-01-11T08:46:07.402Z,1293.00
2023-01-11T08:47:07.329Z,1237.00
2023-01-11T08:48:07.319Z,1227.00
2023-01-11T08:49:07.369Z,1219.00
2023-01-11T08:50:07.337Z,1212.00
2023-01-11T08:51:07.348Z,1201.00
2023-01-11T08:52:07.352Z,1176.00
2023-01-11T08:53:07.416Z,1152.00
2023-01-11T08:54:07.359Z,1133.00
2023-01-11T08:55:07.371Z,1109.00
2023-01-11T08:56:07.377Z,1096.00
2023-01-11T08:57:07.397Z,1082.00
2023-01-11T08:58:07.398Z,1069.00
2023-01-11T08:59:07.443Z,1041.00
2023-01-11T09:00:07.449Z,1009.00
2023-01-11T09:01:07.483Z,978.00
2023-01-11T09:02:07.518Z,959.00
2023-01-11T09:03:07.493Z,949.00
2023-01-11T09:04:23.199Z,940.00
2023-01-11T09:05:08.524Z,926.00
2023-01-11T09:06:07.568Z,916.00
2023-01-11T09:07:07.542Z,891.00
2023-01-11T09:08:07.520Z,880.00
2023-01-11T09:09:09.761Z,860.00
2023-01-11T09:10:09.992Z,847.00
2023-01-11T09:11:09.938Z,837.00
2023-01-11T09:12:09.977Z,826.00
2023-01-11T09:13:07.560Z,816.00
2023-01-11T09:14:07.578Z,790.00
2023-01-11T09:15:07.611Z,774.00
2023-01-11T09:16:07.664Z,763.00
2023-01-11T09:17:07.615Z,753.00
2023-01-11T09:18:07.636Z,751.00
2023-01-11T09:19:07.633Z,745.00
2023-01-11T09:20:07.657Z,730.00
2023-01-11T09:21:07.640Z,688.00
2023-01-11T09:22:07.653Z,672.00
2023-01-11T09:23:07.699Z,672.00
2023-01-11T09:24:07.694Z,664.00
2023-01-11T09:25:07.703Z,660.00
2023-01-11T09:26:07.732Z,652.00
2023-01-11T09:27:07.806Z,651.00
2023-01-11T09:28:07.731Z,645.00
2023-01-11T09:29:07.781Z,638.00
2023-01-11T09:30:07.822Z,631.00
2023-01-11T09:31:07.856Z,622.00
2023-01-11T09:32:07.817Z,633.00
2023-01-11T09:33:07.820Z,823.00
2023-01-11T09:34:07.834Z,794.00
2023-01-11T09:35:07.871Z,778.00
2023-01-11T09:36:07.856Z,761.00
2023-01-11T09:37:07.921Z,756.00
2023-01-11T09:38:07.909Z,759.00
2023-01-11T09:39:07.922Z,764.00
2023-01-11T09:40:07.956Z,768.00
2023-01-11T09:41:07.967Z,776.00
2023-01-11T09:42:08.010Z,827.00
2023-01-11T09:43:07.988Z,910.00
2023-01-11T09:44:07.993Z,910.00
2023-01-11T09:45:08.015Z,1024.00
2023-01-11T09:46:08.775Z,1044.00
2023-01-11T09:47:08.216Z,1018.00
2023-01-11T09:48:08.117Z,963.00
2023-01-11T09:49:08.141Z,828.00
2023-01-11T09:50:08.168Z,780.00
2023-01-11T09:51:08.162Z,755.00
2023-01-11T09:52:08.251Z,752.00
2023-01-11T09:53:08.228Z,748.00
2023-01-11T09:54:08.271Z,724.00
2023-01-11T09:55:08.305Z,718.00
2023-01-11T09:56:08.321Z,663.00
2023-01-11T09:57:08.380Z,668.00
2023-01-11T09:58:08.743Z,636.00
2023-01-11T09:59:08.409Z,646.00
2023-01-11T10:00:08.441Z,739.00
2023-01-11T10:01:08.568Z,751.00
2023-01-11T10:02:08.529Z,752.00
2023-01-11T10:03:08.607Z,787.00
2023-01-11T10:04:08.568Z,873.00
2023-01-11T10:05:08.624Z,855.00
2023-01-11T10:06:08.725Z,831.00
2023-01-11T10:07:08.644Z,825.00
2023-01-11T10:18:30.184Z,973.00
2023-01-11T10:18:32.233Z,833.00
2023-01-11T10:18:32.624Z,979.00
2023-01-11T10:18:33.478Z,981.00
2023-01-11T10:18:39.494Z,983.00
2023-01-11T10:19:33.470Z,1019.00
2023-01-11T10:20:10.021Z,905.00
2023-01-11T10:21:08.958Z,849.00
2023-01-11T10:22:08.989Z,833.00
2023-01-11T10:23:09.011Z,764.00
2023-01-11T10:24:09.031Z,721.00
2023-01-11T10:25:10.720Z,705.00
2023-01-11T10:26:09.078Z,714.00
2023-01-11T10:27:09.197Z,674.00
2023-01-11T10:28:09.143Z,670.00
2023-01-11T10:29:09.139Z,672.00
2023-01-11T10:30:09.180Z,690.00
2023-01-11T10:31:09.301Z,661.00
2023-01-11T10:32:09.232Z,671.00
2023-01-11T10:33:09.244Z,682.00
2023-01-11T10:34:09.278Z,646.00
2023-01-11T10:35:09.279Z,645.00
2023-01-11T10:36:09.331Z,643.00
2023-01-11T10:37:09.327Z,650.00
2023-01-11T10:38:09.412Z,647.00
2023-01-11T10:39:09.423Z,635.00
2023-01-11T10:40:09.417Z,638.00
2023-01-11T10:41:09.534Z,776.00
2023-01-11T10:42:09.428Z,744.00
2023-01-11T10:43:09.478Z,737.00
2023-01-11T10:44:09.478Z,743.00
2023-01-11T10:45:09.567Z,748.00
2023-01-11T10:46:09.550Z,748.00
2023-01-11T10:47:09.557Z,750.00
2023-01-11T10:48:09.582Z,751.00
2023-01-11T10:49:09.590Z,746.00
2023-01-11T10:50:09.581Z,739.00
2023-01-11T10:51:09.623Z,731.00
2023-01-11T10:53:09.640Z,721.00
2023-01-11T10:54:09.696Z,717.00
2023-01-11T10:55:09.685Z,714.00
2023-01-11T10:56:09.703Z,708.00
2023-01-11T10:57:09.711Z,702.00
2023-01-11T10:58:09.723Z,693.00
2023-01-11T10:59:09.738Z,685.00
2023-01-11T11:00:09.797Z,681.00
2023-01-11T11:01:09.855Z,676.00
2023-01-11T11:02:09.823Z,675.00
2023-01-11T11:03:09.807Z,675.00
2023-01-11T11:04:09.845Z,666.00
2023-01-11T11:05:09.818Z,667.00
2023-01-11T11:06:09.830Z,664.00
2023-01-11T11:07:09.852Z,661.00
2023-01-11T11:08:09.915Z,653.00
2023-01-11T11:09:09.922Z,643.00
2023-01-11T11:10:09.909Z,637.00
2023-01-11T11:11:09.931Z,635.00
2023-01-11T11:12:09.947Z,633.00
2023-01-11T11:13:09.950Z,628.00
2023-01-11T11:14:09.996Z,625.00
2023-01-11T11:15:10.000Z,622.00
2023-01-11T11:16:10.047Z,618.00
2023-01-11T11:17:10.026Z,614.00
2023-01-11T11:18:10.039Z,607.00
2023-01-11T11:19:10.078Z,602.00
2023-01-11T11:20:10.074Z,598.00
2023-01-11T11:21:10.135Z,596.00
2023-01-11T11:22:10.088Z,592.00
2023-01-11T11:23:10.138Z,590.00
2023-01-11T11:24:10.295Z,589.00
2023-01-11T11:25:10.728Z,590.00
2023-01-11T11:26:10.238Z,589.00
2023-01-11T11:27:10.211Z,587.00
2023-01-11T11:28:10.242Z,587.00
2023-01-11T11:29:10.290Z,585.00
2023-01-11T11:30:10.377Z,583.00
2023-01-11T11:31:10.265Z,581.00
2023-01-11T11:32:10.273Z,582.00
2023-01-11T11:33:11.257Z,584.00
2023-01-11T11:34:11.221Z,581.00
2023-01-11T11:35:10.768Z,578.00
2023-01-11T11:36:12.206Z,578.00
2023-01-11T11:37:10.362Z,576.00
2023-01-11T11:38:11.222Z,575.00
2023-01-11T11:39:10.345Z,573.00
2023-01-11T11:40:10.414Z,572.00
2023-01-11T11:41:10.383Z,571.00
2023-01-11T11:42:10.393Z,568.00
2023-01-11T11:43:10.413Z,565.00
2023-01-11T11:44:10.431Z,562.00
2023-01-11T11:45:10.445Z,561.00
2023-01-11T11:46:10.969Z,559.00
2023-01-11T11:47:10.496Z,555.00
2023-01-11T11:48:10.493Z,552.00
2023-01-11T11:49:10.525Z,550.00
2023-01-11T11:50:10.556Z,549.00
2023-01-11T11:51:10.561Z,550.00
2023-01-11T11:52:10.551Z,546.00
2023-01-11T11:53:10.559Z,546.00
2023-01-11T11:54:10.574Z,545.00
2023-01-11T11:55:10.578Z,545.00
2023-01-11T11:56:10.641Z,545.00
2023-01-11T11:57:10.597Z,544.00
2023-01-11T11:58:10.598Z,542.00
2023-01-11T11:59:10.617Z,540.00
2023-01-11T12:00:10.617Z,540.00
2023-01-11T12:01:10.620Z,540.00
2023-01-11T12:02:10.700Z,539.00
2023-01-11T12:03:10.665Z,538.00
2023-01-11T12:04:10.666Z,535.00
2023-01-11T12:05:10.756Z,534.00
2023-01-11T12:06:10.695Z,532.00
2023-01-11T12:07:10.707Z,532.00
2023-01-11T12:08:10.723Z,530.00
2023-01-11T12:09:10.740Z,529.00
2023-01-11T12:10:10.770Z,527.00
2023-01-11T12:11:10.748Z,528.00
2023-01-11T12:12:10.759Z,529.00
2023-01-11T12:13:10.759Z,527.00
2023-01-11T12:14:10.775Z,525.00
2023-01-11T12:15:10.783Z,523.00
2023-01-11T12:16:10.787Z,521.00
2023-01-11T12:17:10.852Z,521.00
2023-01-11T12:18:10.802Z,520.00
2023-01-11T12:19:10.795Z,520.00
2023-01-11T12:20:10.848Z,520.00
2023-01-11T12:21:10.860Z,519.00
2023-01-11T12:22:10.819Z,519.00
2023-01-11T12:23:10.825Z,517.00
2023-01-11T12:24:10.832Z,518.00
2023-01-11T12:25:10.847Z,519.00
2023-01-11T12:26:10.870Z,515.00
2023-01-11T12:27:10.916Z,510.00
2023-01-11T12:28:10.937Z,509.00
2023-01-11T12:29:10.873Z,507.00
2023-01-11T12:30:10.909Z,506.00
2023-01-11T12:31:11.028Z,502.00
2023-01-11T12:32:10.916Z,501.00
2023-01-11T12:33:10.929Z,502.00
2023-01-11T12:34:11.005Z,502.00
2023-01-11T12:35:10.936Z,502.00
2023-01-11T12:36:10.999Z,499.00
2023-01-11T12:37:10.954Z,500.00
2023-01-11T12:38:10.951Z,498.00
2023-01-11T12:39:10.996Z,502.00
2023-01-11T12:40:10.973Z,502.00
2023-01-11T12:41:11.018Z,503.00
2023-01-11T12:42:11.003Z,500.00
2023-01-11T12:43:11.020Z,499.00
2023-01-11T12:44:10.998Z,503.00
2023-01-11T12:45:11.057Z,501.00
2023-01-11T12:46:11.243Z,503.00
2023-01-11T12:47:11.054Z,505.00
2023-01-11T12:48:11.064Z,507.00
2023-01-11T12:49:11.050Z,507.00
2023-01-11T12:50:11.041Z,507.00
2023-01-11T12:51:11.046Z,506.00
2023-01-11T12:52:11.080Z,508.00
2023-01-11T12:53:11.084Z,509.00
2023-01-11T12:54:11.069Z,512.00
2023-01-11T12:55:11.075Z,514.00
2023-01-11T12:56:11.082Z,514.00
2023-01-11T12:57:11.127Z,512.00
2023-01-11T12:58:14.111Z,512.00
2023-01-11T12:59:11.105Z,515.00
2023-01-11T13:00:11.110Z,518.00
2023-01-11T13:01:11.131Z,520.00
2023-01-11T13:02:11.188Z,521.00
2023-01-11T13:03:11.159Z,521.00
2023-01-11T13:04:12.297Z,532.00
2023-01-11T13:05:11.169Z,589.00
2023-01-11T13:06:11.187Z,596.00
2023-01-11T13:07:11.172Z,600.00
2023-01-11T13:08:11.192Z,603.00
2023-01-11T13:09:11.198Z,605.00
2023-01-11T13:10:11.204Z,617.00
2023-01-11T13:11:11.207Z,628.00
2023-01-11T13:12:11.257Z,639.00
2023-01-11T13:13:11.224Z,648.00
2023-01-11T13:14:11.245Z,652.00
2023-01-11T13:15:11.250Z,654.00
2023-01-11T13:16:11.269Z,661.00
2023-01-11T13:17:11.299Z,699.00
2023-01-11T13:18:11.287Z,688.00
2023-01-11T13:19:11.285Z,688.00
2023-01-11T13:20:11.315Z,690.00
2023-01-11T13:21:11.322Z,694.00
2023-01-11T13:22:11.338Z,694.00
2023-01-11T13:23:11.339Z,694.00
2023-01-11T13:24:11.321Z,693.00
2023-01-11T13:25:11.361Z,691.00
2023-01-11T13:26:11.371Z,688.00
2023-01-11T13:27:11.392Z,686.00
2023-01-11T13:28:16.688Z,686.00
2023-01-11T13:29:12.417Z,687.00
2023-01-11T13:30:11.401Z,688.00
2023-01-11T13:31:11.518Z,686.00
2023-01-11T13:32:11.396Z,684.00
2023-01-11T13:33:11.403Z,682.00
2023-01-11T13:34:11.439Z,682.00
2023-01-11T13:35:11.415Z,679.00
2023-01-11T13:36:22.239Z,678.00
2023-01-11T13:37:12.441Z,677.00
2023-01-11T13:38:11.440Z,676.00
2023-01-11T13:39:12.270Z,673.00
2023-01-11T13:40:11.480Z,672.00
2023-01-11T13:41:11.523Z,671.00
2023-01-11T13:42:11.545Z,672.00
2023-01-11T13:43:11.870Z,672.00
2023-01-11T13:44:11.573Z,673.00
2023-01-11T13:45:11.482Z,675.00
2023-01-11T13:46:13.311Z,676.00
2023-01-11T13:47:11.511Z,676.00
2023-01-11T13:48:11.811Z,677.00
2023-01-11T13:49:11.550Z,677.00
2023-01-11T13:50:11.586Z,681.00
2023-01-11T13:51:11.574Z,685.00
2023-01-11T13:52:11.636Z,686.00
2023-01-11T13:53:11.598Z,688.00
2023-01-11T13:54:11.599Z,689.00
2023-01-11T13:55:24.367Z,690.00
2023-01-11T13:56:13.306Z,690.00
2023-01-11T13:57:11.604Z,689.00
2023-01-11T13:58:11.658Z,688.00
2023-01-11T13:59:11.616Z,688.00
2023-01-11T14:00:11.627Z,693.00
2023-01-11T14:01:11.684Z,694.00
2023-01-11T14:02:11.655Z,694.00
2023-01-11T14:03:11.704Z,696.00
2023-01-11T14:04:11.716Z,697.00
2023-01-11T14:05:11.686Z,698.00
2023-01-11T14:06:11.691Z,698.00
2023-01-11T14:07:11.701Z,699.00
2023-01-11T14:08:12.264Z,701.00
2023-01-11T14:09:11.786Z,701.00
2023-01-11T14:10:11.825Z,704.00
2023-01-11T14:11:11.817Z,705.00
2023-01-11T14:12:11.816Z,703.00
2023-01-11T14:13:11.884Z,700.00
2023-01-11T14:14:11.827Z,700.00
2023-01-11T14:15:11.849Z,700.00
2023-01-11T14:16:11.938Z,700.00
2023-01-11T14:17:11.869Z,699.00
2023-01-11T14:18:11.906Z,698.00
2023-01-11T14:19:11.903Z,699.00
2023-01-11T14:20:12.274Z,701.00
2023-01-11T14:21:11.931Z,702.00
2023-01-11T14:22:11.927Z,707.00
2023-01-11T14:23:12.303Z,707.00
2023-01-11T14:24:11.946Z,711.00
2023-01-11T14:25:12.110Z,712.00
2023-01-11T14:26:12.012Z,712.00
2023-01-11T14:27:12.046Z,713.00
2023-01-11T14:28:12.169Z,713.00
2023-01-11T14:29:12.017Z,718.00
2023-01-11T14:30:12.039Z,717.00
2023-01-11T14:31:12.063Z,716.00
2023-01-11T14:32:12.035Z,716.00
2023-01-11T14:33:12.049Z,718.00
2023-01-11T14:34:12.062Z,718.00
2023-01-11T14:35:12.089Z,717.00
2023-01-11T14:36:12.077Z,715.00
2023-01-11T14:37:12.114Z,716.00
2023-01-11T14:38:12.137Z,717.00
2023-01-11T14:39:12.263Z,716.00
2023-01-11T14:40:12.143Z,715.00
2023-01-11T14:41:12.145Z,715.00
2023-01-11T14:42:22.035Z,714.00
2023-01-11T14:43:13.180Z,714.00
2023-01-11T14:44:12.185Z,716.00
2023-01-11T14:45:12.178Z,716.00
2023-01-11T14:46:12.245Z,718.00
2023-01-11T14:47:12.250Z,720.00
2023-01-11T14:48:12.229Z,717.00
2023-01-11T14:49:12.257Z,718.00
2023-01-11T14:50:12.261Z,718.00
2023-01-11T14:51:12.278Z,718.00
2023-01-11T14:52:12.292Z,718.00
2023-01-11T14:53:12.294Z,718.00
2023-01-11T14:54:12.345Z,717.00
2023-01-11T14:55:12.450Z,718.00
2023-01-11T14:56:12.370Z,717.00
2023-01-11T14:57:12.354Z,714.00
2023-01-11T14:58:12.363Z,714.00
2023-01-11T14:59:12.403Z,716.00
2023-01-11T15:00:12.384Z,716.00
2023-01-11T15:01:12.393Z,718.00
2023-01-11T15:02:12.399Z,722.00
2023-01-11T15:03:12.499Z,720.00
2023-01-11T15:04:12.471Z,722.00
2023-01-11T15:05:12.429Z,721.00
2023-01-11T15:06:12.462Z,722.00
2023-01-11T15:07:12.464Z,721.00
2023-01-11T15:08:12.484Z,721.00
2023-01-11T15:09:12.514Z,725.00
2023-01-11T15:10:12.508Z,725.00
2023-01-11T15:11:12.501Z,726.00
2023-01-11T15:12:12.532Z,726.00
2023-01-11T15:13:12.562Z,726.00
2023-01-11T15:14:12.563Z,727.00
2023-01-11T15:15:12.576Z,729.00
2023-01-11T15:16:12.659Z,730.00
2023-01-11T15:17:12.592Z,730.00
2023-01-11T15:18:12.666Z,732.00
2023-01-11T15:19:12.632Z,731.00
2023-01-11T15:20:12.652Z,730.00
2023-01-11T15:21:12.677Z,731.00
2023-01-11T15:22:12.662Z,730.00
2023-01-11T15:23:12.682Z,728.00
2023-01-11T15:24:12.711Z,729.00
2023-01-11T15:25:12.736Z,730.00
2023-01-11T15:26:12.721Z,731.00
2023-01-11T15:27:12.827Z,730.00
2023-01-11T15:28:12.735Z,730.00
2023-01-11T15:29:12.762Z,732.00
2023-01-11T15:30:12.792Z,731.00
2023-01-11T15:31:12.830Z,730.00
2023-01-11T15:32:12.812Z,729.00
2023-01-11T15:33:12.841Z,728.00
2023-01-11T15:34:12.829Z,730.00
2023-01-11T15:35:12.851Z,734.00
2023-01-11T15:36:12.868Z,734.00
2023-01-11T15:37:12.850Z,736.00
2023-01-11T15:38:12.879Z,735.00
2023-01-11T15:39:12.870Z,736.00
2023-01-11T15:40:12.905Z,737.00
2023-01-11T15:41:12.895Z,736.00
2023-01-11T15:42:12.916Z,736.00
2023-01-11T15:43:12.930Z,736.00
2023-01-11T15:44:12.943Z,737.00
2023-01-11T15:45:12.966Z,738.00
2023-01-11T15:46:12.991Z,737.00
2023-01-11T15:47:12.978Z,738.00
2023-01-11T15:48:12.996Z,738.00
2023-01-11T15:49:12.997Z,738.00
2023-01-11T15:50:13.054Z,737.00
2023-01-11T15:51:13.084Z,736.00
2023-01-11T15:52:13.059Z,737.00
2023-01-11T15:53:13.064Z,735.00
2023-01-11T15:54:13.076Z,735.00
2023-01-11T15:55:13.079Z,731.00
2023-01-11T15:56:13.101Z,730.00
2023-01-11T15:57:13.118Z,727.00
2023-01-11T15:58:13.151Z,728.00
2023-01-11T15:59:13.147Z,726.00
2023-01-11T16:00:13.163Z,727.00
2023-01-11T16:01:13.194Z,729.00
2023-01-11T16:02:13.194Z,732.00
2023-01-11T16:03:13.185Z,731.00
2023-01-11T16:04:13.223Z,732.00
2023-01-11T16:05:13.213Z,733.00
2023-01-11T16:06:13.239Z,732.00
2023-01-11T16:07:13.240Z,728.00
2023-01-11T16:08:13.258Z,730.00
2023-01-11T16:09:13.277Z,732.00
2023-01-11T16:10:13.304Z,729.00
2023-01-11T16:11:13.314Z,725.00
2023-01-11T16:12:13.338Z,726.00
2023-01-11T16:13:13.355Z,726.00
2023-01-11T16:14:13.380Z,724.00
2023-01-11T16:15:13.375Z,725.00
2023-01-11T16:16:13.477Z,725.00
2023-01-11T16:17:13.423Z,724.00
2023-01-11T16:18:13.438Z,722.00
2023-01-11T16:19:13.453Z,720.00
2023-01-11T16:20:13.468Z,719.00
2023-01-11T16:21:13.497Z,718.00
2023-01-11T16:22:13.520Z,717.00
2023-01-11T16:23:13.526Z,717.00
2023-01-11T16:24:13.508Z,716.00
2023-01-11T16:25:13.538Z,715.00
2023-01-11T16:26:13.578Z,717.00
2023-01-11T16:27:13.569Z,718.00
2023-01-11T16:28:13.554Z,719.00
2023-01-11T16:29:13.574Z,718.00
2023-01-11T16:30:13.580Z,718.00
2023-01-11T16:31:13.658Z,717.00
2023-01-11T16:32:13.618Z,721.00
2023-01-11T16:33:13.632Z,721.00
2023-01-11T16:34:13.641Z,720.00
2023-01-11T16:35:13.673Z,718.00
2023-01-11T16:36:13.656Z,716.00
2023-01-11T16:37:13.684Z,719.00
2023-01-11T16:38:13.687Z,720.00
2023-01-11T16:39:13.719Z,721.00
2023-01-11T16:40:13.713Z,723.00
2023-01-11T16:41:13.728Z,724.00
2023-01-11T16:42:13.723Z,724.00
2023-01-11T16:43:13.734Z,724.00
2023-01-11T16:44:13.735Z,724.00
2023-01-11T16:45:13.754Z,723.00
2023-01-11T16:46:13.795Z,728.00
2023-01-11T16:47:13.766Z,729.00
2023-01-11T16:48:13.790Z,730.00
2023-01-11T16:49:13.789Z,729.00
2023-01-11T16:50:13.834Z,729.00
2023-01-11T16:51:13.819Z,729.00
2023-01-11T16:52:13.869Z,728.00
2023-01-11T16:53:13.843Z,728.00
2023-01-11T16:54:13.959Z,727.00
2023-01-11T16:55:13.857Z,725.00
2023-01-11T16:56:13.895Z,726.00